createdAt,value
2022-08-02T00:01:30.202Z,19.47
2022-08-02T00:03:57.495Z,19.56
2022-08-02T00:06:24.769Z,19.59
2022-08-02T00:08:53.755Z,19.61
2022-08-02T00:11:20.910Z,19.65
2022-08-02T00:14:06.741Z,19.64
2022-08-02T00:16:41.982Z,19.51
2022-08-02T00:19:09.116Z,19.43
2022-08-02T00:21:36.385Z,19.46
2022-08-02T00:24:28.815Z,19.34
2022-08-02T00:26:56.917Z,19.36
2022-08-02T00:29:51.986Z,19.20
2022-08-02T00:32:21.014Z,18.98
2022-08-02T00:35:07.642Z,18.90
2022-08-02T00:37:38.972Z,18.85
2022-08-02T00:40:07.058Z,18.86
2022-08-02T00:42:44.155Z,19.15
2022-08-02T00:45:11.482Z,19.17
2022-08-02T00:47:38.617Z,18.99
2022-08-02T00:50:08.846Z,19.08
2022-08-02T00:52:54.707Z,19.21
2022-08-02T00:55:23.588Z,19.23
2022-08-02T00:58:16.843Z,19.34
2022-08-02T01:00:44.158Z,19.11
2022-08-02T01:03:11.275Z,19.10
2022-08-02T01:06:02.196Z,19.01
2022-08-02T01:08:29.511Z,18.91
2022-08-02T01:10:59.267Z,19.00
2022-08-02T01:13:27.580Z,19.10
2022-08-02T01:16:04.664Z,19.03
2022-08-02T01:18:38.649Z,18.95
2022-08-02T01:21:27.115Z,18.89
2022-08-02T01:24:12.173Z,19.06
2022-08-02T01:27:20.376Z,19.01
2022-08-02T01:30:07.067Z,19.06
2022-08-02T01:32:41.830Z,18.99
2022-08-02T01:35:17.044Z,18.96
2022-08-02T01:38:03.336Z,18.92
2022-08-02T01:40:32.230Z,18.97
2022-08-02T01:43:00.617Z,19.01
2022-08-02T01:45:32.691Z,18.90
2022-08-02T01:48:00.342Z,18.99
2022-08-02T01:50:49.515Z,18.87
2022-08-02T01:53:18.863Z,18.89
2022-08-02T01:55:58.102Z,18.83
2022-08-02T01:58:36.269Z,18.64
2022-08-02T02:01:04.537Z,18.62
2022-08-02T02:03:41.700Z,18.72
2022-08-02T02:06:11.165Z,18.73
2022-08-02T02:08:43.491Z,18.62
2022-08-02T02:12:12.261Z,18.75
2022-08-02T02:14:17.733Z,18.69
2022-08-02T02:16:47.557Z,18.72
2022-08-02T02:19:21.005Z,18.70
2022-08-02T02:21:50.140Z,18.47
2022-08-02T02:24:18.028Z,18.45
2022-08-02T02:26:52.325Z,18.42
2022-08-02T02:29:25.374Z,18.42
2022-08-02T02:32:12.539Z,18.37
2022-08-02T02:34:47.154Z,18.34
2022-08-02T02:37:22.709Z,18.32
2022-08-02T02:39:52.069Z,18.34
2022-08-02T02:42:22.249Z,18.39
2022-08-02T02:44:51.676Z,18.41
2022-08-02T02:47:23.038Z,18.38
2022-08-02T02:50:10.754Z,18.36
2022-08-02T02:52:39.993Z,18.33
2022-08-02T02:55:26.832Z,18.26
2022-08-02T02:57:55.080Z,18.34
2022-08-02T03:00:43.209Z,18.26
2022-08-02T03:03:11.171Z,18.24
2022-08-02T03:05:38.449Z,18.09
2022-08-02T03:08:05.594Z,18.21
2022-08-02T03:10:33.848Z,18.05
2022-08-02T03:13:00.956Z,18.12
2022-08-02T03:15:29.086Z,18.06
2022-08-02T03:17:56.130Z,18.18
2022-08-02T03:20:23.305Z,18.23
2022-08-02T03:22:50.469Z,18.14
2022-08-02T03:25:18.415Z,18.17
2022-08-02T03:27:47.980Z,18.17
2022-08-02T03:30:15.504Z,18.02
2022-08-02T03:32:45.467Z,17.91
2022-08-02T03:35:21.317Z,17.90
2022-08-02T03:37:52.356Z,17.86
2022-08-02T03:40:19.403Z,17.83
2022-08-02T03:42:46.691Z,17.83
2022-08-02T03:45:14.105Z,17.91
2022-08-02T03:47:46.512Z,18.01
2022-08-02T03:50:16.254Z,17.94
2022-08-02T03:52:44.708Z,17.87
2022-08-02T03:55:12.691Z,17.88
2022-08-02T03:57:41.246Z,17.85
2022-08-02T04:00:10.259Z,17.81
2022-08-02T04:02:39.478Z,17.74
2022-08-02T04:05:06.894Z,17.95
2022-08-02T04:08:34.490Z,17.94
2022-08-02T04:10:23.662Z,17.83
2022-08-02T04:12:50.802Z,17.87
2022-08-02T04:15:24.843Z,17.74
2022-08-02T04:17:57.210Z,17.86
2022-08-02T04:20:30.160Z,17.97
2022-08-02T04:23:11.672Z,18.00
2022-08-02T04:25:42.229Z,17.98
2022-08-02T04:28:16.609Z,18.02
2022-08-02T04:30:47.373Z,18.00
2022-08-02T04:33:22.949Z,18.02
2022-08-02T04:35:50.467Z,18.01
2022-08-02T04:38:22.721Z,18.02
2022-08-02T04:40:51.784Z,18.06
2022-08-02T04:43:22.360Z,18.01
2022-08-02T04:45:51.793Z,18.07
2022-08-02T04:48:26.314Z,18.10
2022-08-02T04:50:53.755Z,18.12
2022-08-02T04:53:21.318Z,18.18
2022-08-02T04:55:48.497Z,18.09
2022-08-02T04:58:39.570Z,18.05
2022-08-02T05:01:06.261Z,18.07
2022-08-02T05:03:33.761Z,18.13
2022-08-02T05:06:00.886Z,18.19
2022-08-02T05:08:28.098Z,18.36
2022-08-02T05:10:55.849Z,18.49
2022-08-02T05:13:30.253Z,18.53
2022-08-02T05:16:01.133Z,18.55
2022-08-02T05:18:31.154Z,18.53
2022-08-02T05:20:58.518Z,18.62
2022-08-02T05:23:25.937Z,18.72
2022-08-02T05:25:53.323Z,18.64
2022-08-02T05:28:20.464Z,18.70
2022-08-02T05:30:47.609Z,18.85
2022-08-02T05:33:17.307Z,18.93
2022-08-02T05:35:44.760Z,19.00
2022-08-02T05:38:12.200Z,18.99
2022-08-02T05:40:54.653Z,19.08
2022-08-02T05:43:31.227Z,19.17
2022-08-02T05:45:58.417Z,19.23
2022-08-02T05:48:31.093Z,19.23
2022-08-02T05:51:23.545Z,19.31
2022-08-02T05:53:59.384Z,19.32
2022-08-02T05:56:45.557Z,19.35
2022-08-02T05:59:45.385Z,19.31
2022-08-02T06:02:30.524Z,19.40
2022-08-02T06:05:28.977Z,19.43
2022-08-02T06:08:01.854Z,19.46
2022-08-02T06:10:30.202Z,19.42
2022-08-02T06:13:06.723Z,19.48
2022-08-02T06:15:34.893Z,19.46
2022-08-02T06:18:10.168Z,19.41
2022-08-02T06:20:37.812Z,19.33
2022-08-02T06:23:11.985Z,19.36
2022-08-02T06:25:49.882Z,19.49
2022-08-02T06:28:18.952Z,19.60
2022-08-02T06:30:46.941Z,19.65
2022-08-02T06:33:14.327Z,19.72
2022-08-02T06:36:28.834Z,19.80
2022-08-02T06:39:20.999Z,19.89
2022-08-02T06:41:49.958Z,19.96
2022-08-02T06:44:47.654Z,19.99
2022-08-02T06:47:18.117Z,20.05
2022-08-02T06:50:04.292Z,20.09
2022-08-02T06:52:32.057Z,20.17
2022-08-02T06:55:17.738Z,20.24
2022-08-02T06:57:45.093Z,20.30
2022-08-02T07:00:14.958Z,20.37
2022-08-02T07:02:42.245Z,20.40
2022-08-02T07:05:19.074Z,20.46
2022-08-02T07:07:46.377Z,20.50
2022-08-02T07:10:32.193Z,20.56
2022-08-02T07:13:00.134Z,20.63
2022-08-02T07:15:49.127Z,20.70
2022-08-02T07:18:17.189Z,20.77
2022-08-02T07:20:44.486Z,20.86
2022-08-02T07:23:11.609Z,20.91
2022-08-02T07:26:03.555Z,21.01
2022-08-02T07:28:28.134Z,21.04
2022-08-02T07:30:55.269Z,21.09
2022-08-02T07:33:37.607Z,21.12
2022-08-02T07:36:24.488Z,21.17
2022-08-02T07:38:52.922Z,21.21
2022-08-02T07:41:20.562Z,21.31
2022-08-02T07:43:50.274Z,21.39
2022-08-02T07:46:17.504Z,21.49
2022-08-02T07:48:48.538Z,21.51
2022-08-02T07:51:24.926Z,21.57
2022-08-02T07:54:04.272Z,21.67
2022-08-02T07:56:58.460Z,21.82
2022-08-02T07:59:26.148Z,21.89
2022-08-02T08:01:53.487Z,21.93
2022-08-02T08:04:20.567Z,21.89
2022-08-02T08:06:52.647Z,21.86
2022-08-02T08:09:22.542Z,21.92
2022-08-02T08:12:09.305Z,22.03
2022-08-02T08:14:37.682Z,22.08
2022-08-02T08:17:06.411Z,22.14
2022-08-02T08:19:50.138Z,22.19
2022-08-02T08:22:20.292Z,22.23
2022-08-02T08:24:48.464Z,22.37
2022-08-02T08:27:16.890Z,22.41
2022-08-02T08:29:44.900Z,22.51
2022-08-02T08:32:30.514Z,22.58
2022-08-02T08:34:59.332Z,22.62
2022-08-02T08:37:27.283Z,22.63
2022-08-02T08:39:58.250Z,22.78
2022-08-02T08:42:27.196Z,22.80
2022-08-02T08:44:57.174Z,22.81
2022-08-02T08:47:36.692Z,22.90
2022-08-02T08:50:24.149Z,23.03
2022-08-02T08:53:12.301Z,23.24
2022-08-02T08:55:41.173Z,23.24
2022-08-02T08:58:08.300Z,23.30
2022-08-02T09:00:36.648Z,23.36
2022-08-02T09:03:05.788Z,23.35
2022-08-02T09:05:35.773Z,23.56
2022-08-02T09:08:06.415Z,23.60
2022-08-02T09:10:51.991Z,23.77
2022-08-02T09:13:37.927Z,23.76
2022-08-02T09:16:37.230Z,23.74
2022-08-02T09:19:24.885Z,23.76
2022-08-02T09:22:12.792Z,23.81
2022-08-02T09:24:48.229Z,23.74
2022-08-02T09:27:36.585Z,23.75
2022-08-02T09:30:12.513Z,23.92
2022-08-02T09:32:47.944Z,24.03
2022-08-02T09:36:06.454Z,24.07
2022-08-02T09:38:32.767Z,24.12
2022-08-02T09:41:00.996Z,24.23
2022-08-02T09:44:03.066Z,24.36
2022-08-02T09:46:33.397Z,24.55
2022-08-02T09:49:03.339Z,24.66
2022-08-02T09:51:50.710Z,24.71
2022-08-02T09:54:24.308Z,24.75
2022-08-02T09:57:10.348Z,24.79
2022-08-02T09:59:37.633Z,24.82
2022-08-02T10:02:23.508Z,24.94
2022-08-02T10:04:52.487Z,24.88
2022-08-02T10:07:22.952Z,25.02
2022-08-02T10:09:50.808Z,25.12
2022-08-02T10:12:33.237Z,25.27
2022-08-02T10:15:01.158Z,25.35
2022-08-02T10:17:47.822Z,25.52
2022-08-02T10:20:14.814Z,25.69
2022-08-02T10:23:01.341Z,25.97
2022-08-02T10:25:30.280Z,26.17
2022-08-02T10:28:05.213Z,26.35
2022-08-02T10:30:37.991Z,26.47
2022-08-02T10:33:10.020Z,26.52
2022-08-02T10:35:39.013Z,26.57
2022-08-02T10:38:25.828Z,26.56
2022-08-02T10:40:55.993Z,26.48
2022-08-02T10:43:44.223Z,26.50
2022-08-02T10:46:32.262Z,26.55
2022-08-02T10:49:39.714Z,26.66
2022-08-02T10:52:09.677Z,26.76
2022-08-02T10:54:42.711Z,26.81
2022-08-02T10:57:21.637Z,26.80
2022-08-02T10:59:50.933Z,26.73
2022-08-02T11:02:36.868Z,26.71
2022-08-02T11:05:12.844Z,26.73
2022-08-02T11:07:50.160Z,26.77
2022-08-02T11:10:26.406Z,26.88
2022-08-02T11:13:11.943Z,26.96
2022-08-02T11:15:53.008Z,26.97
2022-08-02T11:18:21.912Z,27.02
2022-08-02T11:21:23.826Z,27.12
2022-08-02T11:23:53.157Z,27.21
2022-08-02T11:26:29.134Z,27.38
2022-08-02T11:29:01.903Z,27.68
2022-08-02T11:31:30.090Z,27.90
2022-08-02T11:34:09.430Z,27.98
2022-08-02T11:36:50.513Z,28.02
2022-08-02T11:39:25.757Z,28.00
2022-08-02T11:42:11.878Z,27.85
2022-08-02T11:44:41.345Z,27.80
2022-08-02T11:47:09.139Z,27.69
2022-08-02T11:49:37.492Z,27.61
2022-08-02T11:52:07.944Z,27.55
2022-08-02T11:54:41.307Z,27.52
2022-08-02T11:57:28.731Z,27.68
2022-08-02T12:00:18.275Z,27.95
2022-08-02T12:03:04.127Z,28.20
2022-08-02T12:06:04.615Z,28.37
2022-08-02T12:08:24.305Z,28.40
2022-08-02T12:10:52.869Z,28.59
2022-08-02T12:13:20.042Z,28.70
2022-08-02T12:15:47.293Z,28.83
2022-08-02T12:18:59.022Z,28.82
2022-08-02T12:21:28.375Z,28.96
2022-08-02T12:24:27.131Z,29.02
2022-08-02T12:26:54.480Z,29.15
2022-08-02T12:29:58.545Z,29.26
2022-08-02T12:32:26.704Z,29.20
2022-08-02T12:35:12.627Z,29.10
2022-08-02T12:37:48.268Z,28.96
2022-08-02T12:40:34.648Z,28.79
2022-08-02T12:43:05.230Z,28.78
2022-08-02T12:45:48.668Z,28.74
2022-08-02T12:48:36.684Z,28.78
2022-08-02T12:51:25.287Z,28.85
2022-08-02T12:54:24.191Z,28.89
2022-08-02T12:57:11.188Z,28.97
2022-08-02T12:59:41.146Z,29.05
2022-08-02T13:02:11.625Z,29.10
2022-08-02T13:04:39.756Z,29.26
2022-08-02T13:07:07.048Z,29.31
2022-08-02T13:10:02.741Z,29.42
2022-08-02T13:12:30.769Z,29.52
2022-08-02T13:14:57.952Z,29.48
2022-08-02T13:17:25.481Z,29.54
2022-08-02T13:19:55.390Z,29.53
2022-08-02T13:22:25.915Z,29.56
2022-08-02T13:24:57.147Z,29.55
2022-08-02T13:27:26.327Z,29.66
2022-08-02T13:29:55.329Z,29.76
2022-08-02T13:32:25.753Z,29.86
2022-08-02T13:34:56.157Z,29.84
2022-08-02T13:37:23.447Z,29.96
2022-08-02T13:40:18.801Z,29.94
2022-08-02T13:42:56.194Z,29.78
2022-08-02T13:45:23.210Z,29.66
2022-08-02T13:48:03.235Z,29.57
2022-08-02T13:50:32.904Z,29.70
2022-08-02T13:53:00.333Z,29.80
2022-08-02T13:55:28.802Z,29.78
2022-08-02T13:57:56.517Z,29.92
2022-08-02T14:00:35.491Z,29.95
2022-08-02T14:03:21.896Z,29.88
2022-08-02T14:05:53.983Z,29.89
2022-08-02T14:08:22.835Z,30.06
2022-08-02T14:10:51.593Z,30.24
2022-08-02T14:13:22.224Z,30.47
2022-08-02T14:15:49.637Z,30.54
2022-08-02T14:18:27.094Z,30.41
2022-08-02T14:20:54.450Z,30.43
2022-08-02T14:23:46.879Z,30.42
2022-08-02T14:26:15.710Z,30.46
2022-08-02T14:28:55.625Z,30.32
2022-08-02T14:31:22.787Z,30.23
2022-08-02T14:33:49.915Z,30.24
2022-08-02T14:36:27.768Z,30.27
2022-08-02T14:38:56.453Z,30.54
2022-08-02T14:41:24.146Z,30.77
2022-08-02T14:44:07.891Z,30.75
2022-08-02T14:46:41.312Z,30.72
2022-08-02T14:49:27.218Z,30.67
2022-08-02T14:51:55.165Z,30.78
2022-08-02T14:54:30.426Z,31.03
2022-08-02T14:57:01.916Z,31.21
2022-08-02T14:59:29.437Z,31.30
2022-08-02T15:01:59.706Z,31.35
2022-08-02T15:04:42.499Z,31.05
2022-08-02T15:07:12.102Z,30.67
2022-08-02T15:09:40.046Z,30.63
2022-08-02T15:12:08.791Z,30.88
2022-08-02T15:14:36.217Z,31.13
2022-08-02T15:17:03.956Z,31.20
2022-08-02T15:19:58.187Z,31.65
2022-08-02T15:22:19.518Z,32.26
2022-08-02T15:24:48.287Z,32.66
2022-08-02T15:27:33.845Z,32.94
2022-08-02T15:30:04.493Z,32.83
2022-08-02T15:32:31.807Z,32.88
2022-08-02T15:34:58.803Z,32.43
2022-08-02T15:37:30.940Z,32.79
2022-08-02T15:40:01.664Z,33.02
2022-08-02T15:42:30.224Z,33.01
2022-08-02T15:44:58.983Z,32.91
2022-08-02T15:47:26.394Z,33.29
2022-08-02T15:49:54.469Z,33.52
2022-08-02T15:52:27.086Z,33.46
2022-08-02T15:54:54.989Z,33.54
2022-08-02T15:57:27.714Z,33.33
2022-08-02T15:59:55.236Z,33.34
2022-08-02T16:02:40.885Z,32.84
2022-08-02T16:05:13.811Z,32.68
2022-08-02T16:07:42.320Z,32.38
2022-08-02T16:10:11.489Z,32.11
2022-08-02T16:12:44.314Z,31.80
2022-08-02T16:15:12.607Z,31.64
2022-08-02T16:17:53.917Z,31.51
2022-08-02T16:20:23.913Z,31.24
2022-08-02T16:23:09.564Z,31.17
2022-08-02T16:25:41.973Z,30.97
2022-08-02T16:28:09.248Z,30.81
2022-08-02T16:30:36.517Z,30.59
2022-08-02T16:33:04.143Z,30.38
2022-08-02T16:35:34.899Z,30.23
2022-08-02T16:40:58.697Z,30.19
2022-08-02T16:43:28.274Z,30.14
2022-08-02T16:45:56.702Z,29.91
2022-08-02T16:48:24.029Z,30.05
2022-08-02T16:50:51.432Z,30.07
2022-08-02T16:53:36.603Z,30.06
2022-08-02T16:56:08.872Z,30.06
2022-08-02T16:58:36.431Z,29.98
2022-08-02T17:01:10.351Z,29.91
2022-08-02T17:03:55.550Z,29.81
2022-08-02T17:06:26.357Z,29.78
2022-08-02T17:08:56.888Z,29.74
2022-08-02T17:11:25.517Z,29.69
2022-08-02T17:13:53.385Z,29.68
2022-08-02T17:16:25.905Z,29.59
2022-08-02T17:18:54.794Z,29.51
2022-08-02T17:21:22.057Z,29.45
2022-08-02T17:24:06.316Z,29.40
2022-08-02T17:26:37.580Z,29.28
2022-08-02T17:29:15.784Z,29.21
2022-08-02T17:32:05.653Z,29.19
2022-08-02T17:34:36.634Z,29.16
2022-08-02T17:37:06.205Z,29.14
2022-08-02T17:39:44.296Z,29.12
2022-08-02T17:42:37.144Z,29.08
2022-08-02T17:45:17.212Z,29.07
2022-08-02T17:48:04.709Z,29.02
2022-08-02T17:50:34.090Z,28.96
2022-08-02T17:53:02.058Z,28.89
2022-08-02T17:55:31.073Z,28.85
2022-08-02T18:00:53.646Z,28.74
2022-08-02T18:03:42.970Z,28.67
2022-08-02T18:06:10.461Z,28.61
2022-08-02T18:08:46.206Z,28.61
2022-08-02T18:11:19.953Z,28.58
2022-08-02T18:14:15.192Z,28.54
2022-08-02T18:16:42.618Z,28.42
2022-08-02T18:19:17.021Z,28.45
2022-08-02T18:21:45.888Z,28.41
2022-08-02T18:24:19.296Z,28.31
2022-08-02T18:26:51.434Z,28.31
2022-08-02T18:29:21.145Z,28.25
2022-08-02T18:31:57.373Z,28.17
2022-08-02T18:34:31.410Z,28.13
2022-08-02T18:37:02.649Z,28.09
2022-08-02T18:39:33.058Z,28.03
2022-08-02T18:42:01.905Z,27.95
2022-08-02T18:44:30.519Z,27.93
2022-08-02T18:47:16.556Z,27.87
2022-08-02T18:49:46.499Z,27.81
2022-08-02T18:52:33.375Z,27.74
2022-08-02T18:55:00.859Z,27.68
2022-08-02T18:58:02.201Z,27.63
2022-08-02T19:00:15.921Z,27.56
2022-08-02T19:02:48.077Z,27.51
2022-08-02T19:05:16.360Z,27.44
2022-08-02T19:08:07.333Z,27.37
2022-08-02T19:10:38.880Z,27.32
2022-08-02T19:13:17.517Z,27.06
2022-08-02T19:15:44.817Z,27.16
2022-08-02T19:18:15.144Z,27.10
2022-08-02T19:20:47.398Z,27.02
2022-08-02T19:23:17.206Z,26.97
2022-08-02T19:25:50.446Z,26.92
2022-08-02T19:28:41.245Z,26.80
2022-08-02T19:31:09.565Z,26.77
2022-08-02T19:34:06.046Z,26.70
2022-08-02T19:36:25.942Z,26.64
2022-08-02T19:39:16.902Z,26.60
2022-08-02T19:41:47.030Z,26.57
2022-08-02T19:44:25.692Z,26.49
2022-08-02T19:46:56.518Z,26.40
2022-08-02T19:49:39.245Z,26.35
2022-08-02T19:52:21.933Z,26.30
2022-08-02T19:54:59.674Z,26.25
2022-08-02T19:57:53.908Z,26.22
2022-08-02T20:00:21.407Z,26.17
2022-08-02T20:02:49.567Z,26.12
2022-08-02T20:05:26.561Z,26.11
2022-08-02T20:07:56.384Z,26.08
2022-08-02T20:10:24.971Z,26.03
2022-08-02T20:12:53.991Z,25.98
2022-08-02T20:15:21.886Z,25.96
2022-08-02T20:17:49.277Z,25.90
2022-08-02T20:20:23.032Z,25.87
2022-08-02T20:26:10.085Z,25.72
2022-08-02T20:28:37.406Z,25.64
2022-08-02T20:31:08.863Z,25.60
2022-08-02T20:33:36.512Z,25.61
2022-08-02T20:36:24.557Z,25.56
2022-08-02T20:38:52.183Z,25.54
2022-08-02T20:41:37.111Z,25.52
2022-08-02T20:44:16.056Z,25.45
2022-08-02T20:46:59.187Z,25.45
2022-08-02T20:49:41.086Z,25.45
2022-08-02T20:52:23.757Z,25.44
2022-08-02T20:54:52.677Z,25.44
2022-08-02T20:57:36.168Z,25.42
2022-08-02T21:00:14.447Z,25.37
2022-08-02T21:02:41.556Z,25.31
2022-08-02T21:05:17.228Z,25.23
2022-08-02T21:07:47.679Z,25.19
2022-08-02T21:10:34.302Z,25.19
2022-08-02T21:13:18.815Z,25.09
2022-08-02T21:15:51.348Z,25.11
2022-08-02T21:18:26.569Z,25.10
2022-08-02T21:21:07.081Z,25.04
2022-08-02T21:23:37.465Z,24.85
2022-08-02T21:26:08.943Z,24.69
2022-08-02T21:28:44.131Z,24.59
2022-08-02T21:31:21.829Z,24.58
2022-08-02T21:34:21.946Z,24.55
2022-08-02T21:36:52.924Z,24.63
2022-08-02T21:39:22.505Z,24.56
2022-08-02T21:41:53.171Z,24.52
2022-08-02T21:44:22.300Z,24.44
2022-08-02T21:46:55.569Z,24.29
2022-08-02T21:50:08.485Z,24.14
2022-08-02T21:52:14.399Z,24.17
2022-08-02T21:54:59.850Z,24.18
2022-08-02T21:57:34.620Z,24.19
2022-08-02T22:00:28.192Z,24.18
2022-08-02T22:03:22.309Z,24.17
2022-08-02T22:05:49.599Z,24.16
2022-08-02T22:08:23.566Z,24.19
2022-08-02T22:11:17.111Z,24.19
2022-08-02T22:13:47.199Z,24.13
2022-08-02T22:16:15.380Z,24.06
2022-08-02T22:18:49.392Z,23.95
2022-08-02T22:24:29.715Z,23.79
2022-08-02T22:26:57.909Z,23.83
2022-08-02T22:29:25.710Z,23.73
2022-08-02T22:32:11.430Z,23.76
2022-08-02T22:34:51.798Z,23.70
2022-08-02T22:38:16.689Z,23.71
2022-08-02T22:40:09.237Z,23.66
2022-08-02T22:42:40.225Z,23.67
2022-08-02T22:45:09.505Z,23.50
2022-08-02T22:47:45.741Z,23.65
2022-08-02T22:50:19.167Z,23.43
2022-08-02T22:53:05.586Z,23.27
2022-08-02T22:55:36.036Z,23.29
2022-08-02T22:58:11.758Z,23.16
2022-08-02T22:58:41.286Z,28.81
2022-08-02T22:59:04.668Z,23.88
2022-08-02T22:59:06.518Z,25.78
2022-08-02T23:00:42.613Z,23.10
2022-08-02T23:03:25.376Z,22.98
2022-08-02T23:05:52.558Z,23.09
2022-08-02T23:08:19.863Z,23.17
2022-08-02T23:10:47.212Z,23.27
2022-08-02T23:13:14.796Z,23.11
2022-08-02T23:16:06.888Z,23.01
2022-08-02T23:18:52.814Z,23.04
2022-08-02T23:21:46.128Z,22.82
2022-08-02T23:24:14.067Z,22.80
2022-08-02T23:26:43.831Z,22.71
2022-08-02T23:29:19.849Z,22.74
2022-08-02T23:31:47.096Z,22.86
2022-08-02T23:34:14.438Z,22.93
2022-08-02T23:36:41.652Z,22.91
2022-08-02T23:39:08.884Z,22.78
2022-08-02T23:41:36.021Z,22.75
2022-08-02T23:44:13.553Z,22.72
2022-08-02T23:46:46.552Z,22.67
2022-08-02T23:49:14.436Z,22.80
2022-08-02T23:51:41.544Z,22.83
2022-08-02T23:54:11.232Z,22.65
2022-08-02T23:56:39.419Z,22.57
2022-08-02T23:59:10.780Z,22.63
